Impacts TAF Board INFO
FOR SITUATIONAL AWARENESS. NOT TO BE USED FOR FLIGHT PLANNING PURPOSES.
IDs:

KDCA - Washington/National, VA, US

Issued at 1509 UTC 28 Jun 2017
Updated at 1543 UTC 28 Jun 2017
Potential Impact None Slight Moderate High
Time1452Z 28/16Z 28/17Z 28/18Z 28/19Z 28/20Z 28/21Z 28/22Z 28/23Z 29/00Z 29/01Z 29/02Z 29/03Z 29/04Z>>
Type OBS PRVL PRVL PRVL PRVL PRVL PRVL PRVL PRVL PRVL PRVL PRVL PRVL PRVL
VIS 10 >6 >6 >6 >6 >6 >6 >6 >6 >6 >6 >6 >6 >6
CIG -- -- -- -- -- -- -- -- -- -- -- -- -- --
Cover FEW FEW FEW FEW FEW FEW FEW FEW SKC SKC SKC SKC SKC SKC
FltCat VFR VFR VFR VFR VFR VFR VFR VFR VFR VFR VFR VFR VFR VFR
WX -- -- -- -- -- -- -- -- -- -- -- -- -- --
WDir VRB VRB VRB VRB 250 250 250 250 190 190 190 190 190 190
WSpd 6 4 4 4 4 4 4 4 7 7 7 7 7 7
WGst -- -- -- -- -- -- -- -- -- -- -- -- -- --

Raw TAF
KDCA 281509Z 2815/2912 VRB04KT P6SM FEW050
  FM281900 25004KT P6SM FEW060
  FM282300 19007KT P6SM SKC


Raw METAR
KDCA 281452Z VRB06KT 10SM FEW050 24/08 A3021 RMK AO2 SLP228 T02440083 53004
KDCA 281352Z 07003KT 10SM CLR 23/11 A3020 RMK AO2 SLP226 T02280106
KDCA 281252Z 12003KT 10SM CLR 21/11 A3020 RMK AO2 SLP225 T02110111

METAR Board
Radar Display
Forecast Discussion

FOR SITUATIONAL AWARENESS. NOT TO BE USED FOR FLIGHT PLANNING PURPOSES.

Page loaded:  15:43 UTC  |   08:43 AM Pacific  |   09:43 AM Mountain  |   10:43 AM Central  |   11:43 AM Eastern

 

ADVISORIES

FORECASTS

FORECASTS

OBSERVATIONS

USER TOOLS

ABOUT US